Ashland, Wisconsin
Current Conditions -  °F | °C
As of 2:53 PM on Friday 31 Oct 2014 (Local Time) from KASX Reporting Station
Clear Clear  
Wind Chill: 31°   Ceiling: Unl
Heat Index: 38°   Visibility: 10mi
Dew Point: 22°   Wind: 10mph
Humidity: 53%   Direction: 40°NE
Pressure: 30.51"   Gusts: NA
Location:  46.59°N, 90.89°W
Report Text: KASX 311953Z AUTO 04009KT 10SM CLR 03/M06 A3051 RMK AO2 SLP343 T00331056
Loading
Personal Weather Stations






























Interactive Weather Map
Tropical Storm Tracking
New forecast layout! Learn more

10-Day Weather Forecast

Advertisements
Track Severe Weather on mobile